createdAt,value
2017-09-29T00:01:35.263Z,18.71
2017-09-29T00:04:02.665Z,18.72
2017-09-29T00:06:30.062Z,18.72
2017-09-29T00:08:57.467Z,18.72
2017-09-29T00:11:24.859Z,18.73
2017-09-29T00:13:52.262Z,18.69
2017-09-29T00:16:19.662Z,18.68
2017-09-29T00:18:47.090Z,18.70
2017-09-29T00:21:14.486Z,18.68
2017-09-29T00:23:41.897Z,18.56
2017-09-29T00:26:09.291Z,18.58
2017-09-29T00:28:36.690Z,18.54
2017-09-29T00:31:04.088Z,18.51
2017-09-29T00:33:31.493Z,18.53
2017-09-29T00:35:58.887Z,18.56
2017-09-29T00:38:26.290Z,18.59
2017-09-29T00:40:53.711Z,18.58
2017-09-29T00:43:21.106Z,18.59
2017-09-29T00:45:48.503Z,18.58
2017-09-29T00:48:15.920Z,18.31
2017-09-29T00:50:43.320Z,18.34
2017-09-29T00:53:10.723Z,18.40
2017-09-29T00:55:38.122Z,18.39
2017-09-29T00:58:05.526Z,18.39
2017-09-29T01:00:32.940Z,18.48
2017-09-29T01:03:00.331Z,18.48
2017-09-29T01:05:27.738Z,18.38
2017-09-29T01:07:55.135Z,18.33
2017-09-29T01:10:22.535Z,18.37
2017-09-29T01:12:49.930Z,18.24
2017-09-29T01:15:17.351Z,18.20
2017-09-29T01:17:44.746Z,18.18
2017-09-29T01:20:12.153Z,18.12
2017-09-29T01:22:39.571Z,18.13
2017-09-29T01:25:06.966Z,18.22
2017-09-29T01:27:34.659Z,18.23
2017-09-29T01:30:02.055Z,18.26
2017-09-29T01:32:29.486Z,18.29
2017-09-29T01:34:56.886Z,18.35
2017-09-29T01:37:24.283Z,18.38
2017-09-29T01:39:51.696Z,18.41
2017-09-29T01:42:19.092Z,18.44
2017-09-29T01:44:46.503Z,18.40
2017-09-29T01:47:13.904Z,18.39
2017-09-29T01:49:41.314Z,18.40
2017-09-29T01:52:08.719Z,18.42
2017-09-29T01:54:36.110Z,18.43
2017-09-29T01:57:03.519Z,18.27
2017-09-29T01:59:30.919Z,18.25
2017-09-29T02:01:58.348Z,18.26
2017-09-29T02:04:25.746Z,18.32
2017-09-29T02:06:53.149Z,18.36
2017-09-29T02:09:20.551Z,18.37
2017-09-29T02:11:47.950Z,18.38
2017-09-29T02:14:15.375Z,18.37
2017-09-29T02:16:42.778Z,18.39
2017-09-29T02:19:10.175Z,18.38
2017-09-29T02:21:37.578Z,18.30
2017-09-29T02:24:04.976Z,18.11
2017-09-29T02:26:32.374Z,18.08
2017-09-29T02:28:59.770Z,18.10
2017-09-29T02:31:27.177Z,18.11
2017-09-29T02:33:54.577Z,18.00
2017-09-29T02:36:21.961Z,17.94
2017-09-29T02:38:49.368Z,18.00
2017-09-29T02:41:16.763Z,18.16
2017-09-29T02:43:44.168Z,18.18
2017-09-29T02:46:11.562Z,18.27
2017-09-29T02:48:38.975Z,18.12
2017-09-29T02:51:06.375Z,18.03
2017-09-29T02:53:33.779Z,18.04
2017-09-29T02:56:01.191Z,18.15
2017-09-29T02:58:31.259Z,18.23
2017-09-29T03:01:00.246Z,18.23
2017-09-29T03:03:30.579Z,18.24
2017-09-29T03:05:58.447Z,18.23
2017-09-29T03:08:25.846Z,18.27
2017-09-29T03:10:53.254Z,18.22
2017-09-29T03:13:20.659Z,18.25
2017-09-29T03:15:48.050Z,18.27
2017-09-29T03:18:15.455Z,18.31
2017-09-29T03:20:42.854Z,18.31
2017-09-29T03:23:10.267Z,18.36
2017-09-29T03:25:37.656Z,18.35
2017-09-29T03:28:05.063Z,18.37
2017-09-29T03:30:32.471Z,18.30
2017-09-29T03:32:59.876Z,18.24
2017-09-29T03:35:27.281Z,18.26
2017-09-29T03:37:54.678Z,18.20
2017-09-29T03:40:22.081Z,18.22
2017-09-29T03:42:49.476Z,18.20
2017-09-29T03:45:16.886Z,18.21
2017-09-29T03:47:44.286Z,18.25
2017-09-29T03:50:11.947Z,18.22
2017-09-29T03:52:39.647Z,18.11
2017-09-29T03:55:09.255Z,18.17
2017-09-29T03:57:36.900Z,18.20
2017-09-29T04:00:04.294Z,18.20
2017-09-29T04:02:31.698Z,18.22
2017-09-29T04:04:59.093Z,18.20
2017-09-29T04:07:26.504Z,18.15
2017-09-29T04:09:53.899Z,18.21
2017-09-29T04:12:21.295Z,18.21
2017-09-29T04:14:48.690Z,18.26
2017-09-29T04:17:16.097Z,18.27
2017-09-29T04:19:43.482Z,18.24
2017-09-29T04:22:10.880Z,18.25
2017-09-29T04:24:38.324Z,18.27
2017-09-29T04:27:05.696Z,18.30
2017-09-29T04:29:33.096Z,18.29
2017-09-29T04:32:00.502Z,18.28
2017-09-29T04:34:27.894Z,18.29
2017-09-29T04:36:55.298Z,18.30
2017-09-29T04:39:22.694Z,18.34
2017-09-29T04:41:50.090Z,18.32
2017-09-29T04:44:17.492Z,18.32
2017-09-29T04:46:44.890Z,18.31
2017-09-29T04:49:12.330Z,18.32
2017-09-29T04:51:39.708Z,18.29
2017-09-29T04:54:07.119Z,18.26
2017-09-29T04:56:34.519Z,18.30
2017-09-29T04:59:01.919Z,18.32
2017-09-29T05:01:29.323Z,18.31
2017-09-29T05:03:56.721Z,18.28
2017-09-29T05:06:24.125Z,18.27
2017-09-29T05:08:51.513Z,18.30
2017-09-29T05:11:18.914Z,18.27
2017-09-29T05:13:46.306Z,18.23
2017-09-29T05:16:13.707Z,18.21
2017-09-29T05:18:41.106Z,18.17
2017-09-29T05:21:08.506Z,18.13
2017-09-29T05:23:35.908Z,18.06
2017-09-29T05:26:03.747Z,18.00
2017-09-29T05:28:31.134Z,17.96
2017-09-29T05:30:58.530Z,17.88
2017-09-29T05:33:25.923Z,17.82
2017-09-29T05:35:53.323Z,17.75
2017-09-29T05:38:20.716Z,17.69
2017-09-29T05:40:48.123Z,17.64
2017-09-29T05:43:15.516Z,17.60
2017-09-29T05:45:42.934Z,17.58
2017-09-29T05:48:10.337Z,17.60
2017-09-29T05:50:37.731Z,17.59
2017-09-29T05:53:05.135Z,17.60
2017-09-29T05:55:32.539Z,17.58
2017-09-29T05:57:59.959Z,17.58
2017-09-29T06:00:27.354Z,17.64
2017-09-29T06:02:54.762Z,17.65
2017-09-29T06:05:22.162Z,17.66
2017-09-29T06:07:49.554Z,17.71
2017-09-29T06:10:16.956Z,17.70
2017-09-29T06:12:44.355Z,17.70
2017-09-29T06:15:11.760Z,17.68
2017-09-29T06:17:39.151Z,17.69
2017-09-29T06:20:06.559Z,17.69
2017-09-29T06:22:33.954Z,17.71
2017-09-29T06:25:01.355Z,17.75
2017-09-29T06:27:28.758Z,17.73
2017-09-29T06:29:56.154Z,17.81
2017-09-29T06:32:23.554Z,17.83
2017-09-29T06:34:50.945Z,17.87
2017-09-29T06:37:18.355Z,17.91
2017-09-29T06:39:45.751Z,17.91
2017-09-29T06:42:13.147Z,17.95
2017-09-29T06:44:40.556Z,17.98
2017-09-29T06:47:07.955Z,18.03
2017-09-29T06:49:35.358Z,18.04
2017-09-29T06:52:02.764Z,18.08
2017-09-29T06:54:30.170Z,18.09
2017-09-29T06:56:57.566Z,18.11
2017-09-29T06:59:24.971Z,18.12
2017-09-29T07:01:52.375Z,18.10
2017-09-29T07:04:19.766Z,18.13
2017-09-29T07:06:47.173Z,18.10
2017-09-29T07:09:14.570Z,18.15
2017-09-29T07:11:41.974Z,18.10
2017-09-29T07:14:09.374Z,18.07
2017-09-29T07:16:36.779Z,18.08
2017-09-29T07:19:04.175Z,18.05
2017-09-29T07:21:31.566Z,18.13
2017-09-29T07:23:58.967Z,18.11
2017-09-29T07:26:28.279Z,18.14
2017-09-29T07:28:57.646Z,18.18
2017-09-29T07:31:27.019Z,18.17
2017-09-29T07:33:54.439Z,18.20
2017-09-29T07:36:21.835Z,18.16
2017-09-29T07:38:49.243Z,18.17
2017-09-29T07:41:16.635Z,18.18
2017-09-29T07:43:44.044Z,18.19
2017-09-29T07:46:11.443Z,18.21
2017-09-29T07:48:38.888Z,18.24
2017-09-29T07:51:06.286Z,18.24
2017-09-29T07:53:33.688Z,18.33
2017-09-29T07:56:01.095Z,18.32
2017-09-29T07:58:28.493Z,18.33
2017-09-29T08:00:55.891Z,18.37
2017-09-29T08:03:23.291Z,18.44
2017-09-29T08:05:50.703Z,18.48
2017-09-29T08:08:18.099Z,18.55
2017-09-29T08:10:45.502Z,18.57
2017-09-29T08:13:12.909Z,18.64
2017-09-29T08:15:40.315Z,18.66
2017-09-29T08:18:07.706Z,18.73
2017-09-29T08:20:35.102Z,18.80
2017-09-29T08:23:02.522Z,18.87
2017-09-29T08:25:29.913Z,18.98
2017-09-29T08:27:57.311Z,19.02
2017-09-29T08:30:24.710Z,19.07
2017-09-29T08:32:52.117Z,19.18
2017-09-29T08:35:19.529Z,19.29
2017-09-29T08:37:46.918Z,19.43
2017-09-29T08:40:14.323Z,19.52
2017-09-29T08:42:41.722Z,19.65
2017-09-29T08:45:09.142Z,19.81
2017-09-29T08:47:36.529Z,19.96
2017-09-29T08:50:03.926Z,20.18
2017-09-29T08:52:31.326Z,20.32
2017-09-29T08:54:58.724Z,20.45
2017-09-29T08:57:26.126Z,20.58
2017-09-29T08:59:53.524Z,20.75
2017-09-29T09:02:20.922Z,20.97
2017-09-29T09:04:48.317Z,21.19
2017-09-29T09:07:15.727Z,21.37
2017-09-29T09:09:43.123Z,21.62
2017-09-29T09:12:10.528Z,21.85
2017-09-29T09:14:37.928Z,22.09
2017-09-29T09:17:05.326Z,22.36
2017-09-29T09:19:32.731Z,22.57
2017-09-29T09:22:00.127Z,22.73
2017-09-29T09:24:27.535Z,22.91
2017-09-29T09:26:54.939Z,23.26
2017-09-29T09:29:22.361Z,23.44
2017-09-29T09:31:49.754Z,23.61
2017-09-29T09:34:17.150Z,23.57
2017-09-29T09:36:44.558Z,23.53
2017-09-29T09:39:11.946Z,23.77
2017-09-29T09:41:39.353Z,24.24
2017-09-29T09:44:06.755Z,24.70
2017-09-29T09:46:34.206Z,25.19
2017-09-29T09:49:01.608Z,25.56
2017-09-29T09:51:29.003Z,25.78
2017-09-29T09:53:56.403Z,25.73
2017-09-29T09:56:23.831Z,25.51
2017-09-29T09:58:51.250Z,25.31
2017-09-29T10:01:18.653Z,24.92
2017-09-29T10:03:46.047Z,24.60
2017-09-29T10:06:13.446Z,24.41
2017-09-29T10:08:40.843Z,24.49
2017-09-29T10:11:08.251Z,24.88
2017-09-29T10:13:35.647Z,25.22
2017-09-29T10:16:03.042Z,25.25
2017-09-29T10:18:30.454Z,25.09
2017-09-29T10:20:57.851Z,24.88
2017-09-29T10:23:25.254Z,24.98
2017-09-29T10:25:52.642Z,25.54
2017-09-29T10:28:20.232Z,26.03
2017-09-29T10:30:47.615Z,26.13
2017-09-29T10:33:15.009Z,26.01
2017-09-29T10:35:42.406Z,26.13
2017-09-29T10:38:09.801Z,26.25
2017-09-29T10:40:37.199Z,26.42
2017-09-29T10:43:04.594Z,26.64
2017-09-29T10:45:32.004Z,26.56
2017-09-29T10:47:59.387Z,26.35
2017-09-29T10:50:26.779Z,26.22
2017-09-29T10:52:54.177Z,26.33
2017-09-29T10:55:21.566Z,26.58
2017-09-29T10:57:48.954Z,26.67
2017-09-29T11:00:16.346Z,26.66
2017-09-29T11:02:43.750Z,26.69
2017-09-29T11:05:11.150Z,26.76
2017-09-29T11:07:38.548Z,26.94
2017-09-29T11:10:05.951Z,27.13
2017-09-29T11:12:33.338Z,27.38
2017-09-29T11:15:00.742Z,27.74
2017-09-29T11:17:28.131Z,27.88
2017-09-29T11:19:55.541Z,28.17
2017-09-29T11:22:22.926Z,28.42
2017-09-29T11:24:50.315Z,28.66
2017-09-29T11:27:17.706Z,28.78
2017-09-29T11:29:45.103Z,28.80
2017-09-29T11:32:12.495Z,28.69
2017-09-29T11:34:39.890Z,28.61
2017-09-29T11:37:07.287Z,28.39
2017-09-29T11:39:34.680Z,28.28
2017-09-29T11:42:02.067Z,28.52
2017-09-29T11:44:29.462Z,28.70
2017-09-29T11:46:56.865Z,28.93
2017-09-29T11:49:24.271Z,28.95
2017-09-29T11:51:51.662Z,29.09
2017-09-29T11:54:19.042Z,29.18
2017-09-29T11:56:46.447Z,29.19
2017-09-29T11:59:13.834Z,29.23
2017-09-29T12:01:41.226Z,29.12
2017-09-29T12:04:08.622Z,28.99
2017-09-29T12:06:36.036Z,28.74
2017-09-29T12:09:03.425Z,28.49
2017-09-29T12:11:30.826Z,28.39
2017-09-29T12:13:58.221Z,28.25
2017-09-29T12:16:25.619Z,28.16
2017-09-29T12:18:53.014Z,28.06
2017-09-29T12:21:20.407Z,28.01
2017-09-29T12:23:47.880Z,27.93
2017-09-29T12:26:15.283Z,27.82
2017-09-29T12:28:42.689Z,27.65
2017-09-29T12:31:10.090Z,27.59
2017-09-29T12:33:37.486Z,27.52
2017-09-29T12:36:05.206Z,27.53
2017-09-29T12:38:32.604Z,27.59
2017-09-29T12:41:00.795Z,27.60
2017-09-29T12:43:28.195Z,27.65
2017-09-29T12:45:55.641Z,27.69
2017-09-29T12:48:23.041Z,27.71
2017-09-29T12:50:50.886Z,27.63
2017-09-29T12:53:18.298Z,27.69
2017-09-29T12:55:45.694Z,27.66
2017-09-29T12:58:13.113Z,27.69
2017-09-29T13:00:40.506Z,27.61
2017-09-29T13:03:07.906Z,27.64
2017-09-29T13:05:35.342Z,27.73
2017-09-29T13:08:02.709Z,27.82
2017-09-29T13:10:30.118Z,27.87
2017-09-29T13:12:57.514Z,27.81
2017-09-29T13:15:24.983Z,27.94
2017-09-29T13:17:52.359Z,28.09
2017-09-29T13:20:19.759Z,28.20
2017-09-29T13:22:47.180Z,28.28
2017-09-29T13:25:14.576Z,28.29
2017-09-29T13:27:41.982Z,28.29
2017-09-29T13:30:09.386Z,28.49
2017-09-29T13:32:36.788Z,28.59
2017-09-29T13:35:04.190Z,28.73
2017-09-29T13:37:31.591Z,28.74
2017-09-29T13:39:59.018Z,28.76
2017-09-29T13:42:26.415Z,28.72
2017-09-29T13:44:53.814Z,28.59
2017-09-29T13:47:21.214Z,28.46
2017-09-29T13:49:48.619Z,28.25
2017-09-29T13:52:16.008Z,28.13
2017-09-29T13:54:43.402Z,27.95
2017-09-29T13:57:10.815Z,27.83
2017-09-29T13:59:38.210Z,27.69
2017-09-29T14:02:06.637Z,27.59
2017-09-29T14:04:34.051Z,27.59
2017-09-29T14:07:01.451Z,27.61
2017-09-29T14:09:28.886Z,27.57
2017-09-29T14:11:56.373Z,27.55
2017-09-29T14:14:23.763Z,27.52
2017-09-29T14:16:51.169Z,27.59
2017-09-29T14:19:19.202Z,27.59
2017-09-29T14:21:46.615Z,27.48
2017-09-29T14:24:14.017Z,27.35
2017-09-29T14:26:41.422Z,27.33
2017-09-29T14:29:09.639Z,27.20
2017-09-29T14:31:37.048Z,27.07
2017-09-29T14:34:04.447Z,26.91
2017-09-29T14:36:31.845Z,26.82
2017-09-29T14:38:59.246Z,26.68
2017-09-29T14:41:26.649Z,26.60
2017-09-29T14:43:55.654Z,26.54
2017-09-29T14:46:23.053Z,26.47
2017-09-29T14:48:51.454Z,26.40
2017-09-29T14:51:18.859Z,26.35
2017-09-29T14:53:46.266Z,26.29
2017-09-29T14:56:13.681Z,26.34
2017-09-29T14:58:41.099Z,26.29
2017-09-29T15:01:08.526Z,26.27
2017-09-29T15:03:35.950Z,26.33
2017-09-29T15:06:03.360Z,26.37
2017-09-29T15:08:30.754Z,26.39
2017-09-29T15:10:58.219Z,26.32
2017-09-29T15:13:25.617Z,26.23
2017-09-29T15:15:53.866Z,26.18
2017-09-29T15:18:21.274Z,26.20
2017-09-29T15:20:48.678Z,26.12
2017-09-29T15:23:16.081Z,26.05
2017-09-29T15:25:43.474Z,25.97
2017-09-29T15:28:10.887Z,25.85
2017-09-29T15:30:38.282Z,25.78
2017-09-29T15:33:05.699Z,25.73
2017-09-29T15:35:33.222Z,25.58
2017-09-29T15:38:00.614Z,25.48
2017-09-29T15:40:28.018Z,25.37
2017-09-29T15:42:55.443Z,25.30
2017-09-29T15:45:22.842Z,25.18
2017-09-29T15:47:50.283Z,25.14
2017-09-29T15:50:17.693Z,25.08
2017-09-29T15:52:45.092Z,24.99
2017-09-29T15:55:12.504Z,24.90
2017-09-29T15:57:39.906Z,24.90
2017-09-29T16:00:07.308Z,24.89
2017-09-29T16:02:34.711Z,24.85
2017-09-29T16:05:02.106Z,24.83
2017-09-29T16:07:29.535Z,24.81
2017-09-29T16:09:56.922Z,24.76
2017-09-29T16:12:24.329Z,24.74
2017-09-29T16:14:51.722Z,24.74
2017-09-29T16:17:19.128Z,24.67
2017-09-29T16:19:46.519Z,24.63
2017-09-29T16:22:13.910Z,24.64
2017-09-29T16:24:41.310Z,24.64
2017-09-29T16:27:08.994Z,24.62
2017-09-29T16:29:36.395Z,24.61
2017-09-29T16:32:03.782Z,24.56
2017-09-29T16:34:31.174Z,24.50
2017-09-29T16:36:58.567Z,24.42
2017-09-29T16:39:25.970Z,24.27
2017-09-29T16:41:53.357Z,24.13
2017-09-29T16:44:20.798Z,24.04
2017-09-29T16:46:48.196Z,23.97
2017-09-29T16:49:15.590Z,23.90
2017-09-29T16:51:42.978Z,23.90
2017-09-29T16:54:10.378Z,23.87
2017-09-29T16:56:37.786Z,23.80
2017-09-29T16:59:05.171Z,23.76
2017-09-29T17:01:32.562Z,23.70
2017-09-29T17:03:59.957Z,23.63
2017-09-29T17:06:27.354Z,23.59
2017-09-29T17:08:54.768Z,23.51
2017-09-29T17:11:22.170Z,23.44
2017-09-29T17:13:49.570Z,23.38
2017-09-29T17:16:16.962Z,23.37
2017-09-29T17:18:44.366Z,23.32
2017-09-29T17:21:11.771Z,23.27
2017-09-29T17:23:39.213Z,23.18
2017-09-29T17:26:06.605Z,23.18
2017-09-29T17:28:33.989Z,23.10
2017-09-29T17:31:01.378Z,23.04
2017-09-29T17:33:28.770Z,23.03
2017-09-29T17:35:56.180Z,22.98
2017-09-29T17:38:23.571Z,22.95
2017-09-29T17:40:50.992Z,22.90
2017-09-29T17:43:18.381Z,22.86
2017-09-29T17:45:45.778Z,22.81
2017-09-29T17:48:13.163Z,22.80
2017-09-29T17:50:40.555Z,22.78
2017-09-29T17:53:07.950Z,22.77
2017-09-29T17:55:35.355Z,22.74
2017-09-29T17:58:02.755Z,22.75
2017-09-29T18:00:30.146Z,22.73
2017-09-29T18:02:57.535Z,22.73
2017-09-29T18:05:30.846Z,22.73
2017-09-29T18:07:58.234Z,22.79
2017-09-29T18:10:25.647Z,22.72
2017-09-29T18:12:53.034Z,22.72
2017-09-29T18:15:21.259Z,22.75
2017-09-29T18:17:48.687Z,22.73
2017-09-29T18:20:16.095Z,22.69
2017-09-29T18:22:43.492Z,22.68
2017-09-29T18:25:10.879Z,22.63
2017-09-29T18:27:38.286Z,22.56
2017-09-29T18:30:05.679Z,22.49
2017-09-29T18:32:33.077Z,22.48
2017-09-29T18:35:00.479Z,22.45
2017-09-29T18:37:27.895Z,22.40
2017-09-29T18:39:55.290Z,22.37
2017-09-29T18:42:22.755Z,22.32
2017-09-29T18:47:49.107Z,22.20
2017-09-29T18:50:16.515Z,22.25
2017-09-29T18:52:43.911Z,22.17
2017-09-29T18:55:11.337Z,22.20
2017-09-29T18:57:38.730Z,22.19
2017-09-29T19:00:06.126Z,22.15
2017-09-29T19:02:33.530Z,22.16
2017-09-29T19:05:00.931Z,22.15
2017-09-29T19:07:28.334Z,22.17
2017-09-29T19:09:55.730Z,22.21
2017-09-29T19:12:23.151Z,22.16
2017-09-29T19:14:50.546Z,22.14
2017-09-29T19:17:17.947Z,22.12
2017-09-29T19:19:45.346Z,22.14
2017-09-29T19:22:12.738Z,22.13
2017-09-29T19:24:40.142Z,22.09
2017-09-29T19:27:07.539Z,22.10
2017-09-29T19:29:34.950Z,22.11
2017-09-29T19:32:02.346Z,22.09
2017-09-29T19:34:29.742Z,22.09
2017-09-29T19:36:57.150Z,22.12
2017-09-29T19:39:24.572Z,22.10
2017-09-29T19:41:51.954Z,22.09
2017-09-29T19:44:19.354Z,22.10
2017-09-29T19:46:46.773Z,22.09
2017-09-29T19:49:14.163Z,22.05
2017-09-29T19:51:41.558Z,22.07
2017-09-29T19:54:08.959Z,22.07
2017-09-29T19:56:36.406Z,22.04
2017-09-29T19:59:03.811Z,22.07
2017-09-29T20:01:31.206Z,22.03
2017-09-29T20:03:58.626Z,22.06
2017-09-29T20:06:26.035Z,22.07
2017-09-29T20:08:53.455Z,22.03
2017-09-29T20:11:20.842Z,21.95
2017-09-29T20:13:48.234Z,21.91
2017-09-29T20:16:15.636Z,21.82
2017-09-29T20:18:43.037Z,21.83
2017-09-29T20:21:10.471Z,21.81
2017-09-29T20:23:37.882Z,21.77
2017-09-29T20:26:05.283Z,21.71
2017-09-29T20:28:32.682Z,21.71
2017-09-29T20:31:00.080Z,21.69
2017-09-29T20:33:27.486Z,21.66
2017-09-29T20:35:54.877Z,21.64
2017-09-29T20:38:22.289Z,21.60
2017-09-29T20:40:49.700Z,21.57
2017-09-29T20:43:17.094Z,21.58
2017-09-29T20:45:44.504Z,21.56
2017-09-29T20:48:11.902Z,21.53
2017-09-29T20:50:39.311Z,21.50
2017-09-29T20:53:06.709Z,21.51
2017-09-29T20:55:34.113Z,21.50
2017-09-29T20:58:01.510Z,21.48
2017-09-29T21:00:28.935Z,21.47
2017-09-29T21:02:56.328Z,21.47
2017-09-29T21:05:23.731Z,21.44
2017-09-29T21:07:51.130Z,21.44
2017-09-29T21:10:18.522Z,21.45
2017-09-29T21:12:45.933Z,21.48
2017-09-29T21:15:13.334Z,21.45
2017-09-29T21:17:40.755Z,21.42
2017-09-29T21:20:08.159Z,21.46
2017-09-29T21:22:35.570Z,21.43
2017-09-29T21:25:02.972Z,21.46
2017-09-29T21:27:30.367Z,21.49
2017-09-29T21:29:57.771Z,21.43
2017-09-29T21:32:25.166Z,21.44
2017-09-29T21:34:52.579Z,21.48
2017-09-29T21:37:19.982Z,21.44
2017-09-29T21:39:47.382Z,21.42
2017-09-29T21:42:14.788Z,21.41
2017-09-29T21:44:42.215Z,21.38
2017-09-29T21:47:09.607Z,21.36
2017-09-29T21:49:37.006Z,21.37
2017-09-29T21:52:04.410Z,21.39
2017-09-29T21:54:31.817Z,21.37
2017-09-29T21:56:59.222Z,21.32
2017-09-29T21:59:26.630Z,21.32
2017-09-29T22:01:54.065Z,21.34
2017-09-29T22:04:21.465Z,21.30
2017-09-29T22:06:48.863Z,21.24
2017-09-29T22:09:16.274Z,21.21
2017-09-29T22:11:43.671Z,21.22
2017-09-29T22:14:11.075Z,21.15
2017-09-29T22:16:38.474Z,21.17
2017-09-29T22:19:05.887Z,21.19
2017-09-29T22:21:33.287Z,21.19
2017-09-29T22:24:00.682Z,21.17
2017-09-29T22:26:28.077Z,21.17
2017-09-29T22:28:55.473Z,21.18
2017-09-29T22:31:22.879Z,21.14
2017-09-29T22:33:50.274Z,21.17
2017-09-29T22:36:17.674Z,21.21
2017-09-29T22:38:45.074Z,21.12
2017-09-29T22:41:12.485Z,21.10
2017-09-29T22:43:39.875Z,21.11
2017-09-29T22:46:07.275Z,21.10
2017-09-29T22:48:34.676Z,21.11
2017-09-29T22:51:02.075Z,21.06
2017-09-29T22:53:29.482Z,21.01
2017-09-29T22:55:56.883Z,20.97
2017-09-29T22:58:24.289Z,20.97
2017-09-29T23:00:51.705Z,20.96
2017-09-29T23:03:19.090Z,20.94
2017-09-29T23:05:46.506Z,20.92
2017-09-29T23:08:13.902Z,20.89
2017-09-29T23:10:41.294Z,20.90
2017-09-29T23:13:08.686Z,20.87
2017-09-29T23:15:36.099Z,20.91
2017-09-29T23:18:03.498Z,20.90
2017-09-29T23:20:30.894Z,20.83
2017-09-29T23:22:58.295Z,20.83
2017-09-29T23:25:25.696Z,20.79
2017-09-29T23:27:53.095Z,20.73
2017-09-29T23:30:20.482Z,20.69
2017-09-29T23:32:47.896Z,20.60
2017-09-29T23:35:15.286Z,20.64
2017-09-29T23:37:42.696Z,20.55
2017-09-29T23:40:10.104Z,20.52
2017-09-29T23:42:37.497Z,20.47
2017-09-29T23:45:04.906Z,20.46
2017-09-29T23:47:32.311Z,20.46
2017-09-29T23:49:59.724Z,20.47
2017-09-29T23:52:27.126Z,20.52
2017-09-29T23:54:54.518Z,20.46
2017-09-29T23:57:21.925Z,20.48
2017-09-29T23:59:49.318Z,20.47
